createdAt,value
2022-12-24T00:00:35.314Z,96838.81
2022-12-24T00:03:02.262Z,96847.06
2022-12-24T00:05:29.245Z,96833.91
2022-12-24T00:07:55.917Z,96835.25
2022-12-24T00:10:22.705Z,96838.00
2022-12-24T00:12:49.379Z,96853.81
2022-12-24T00:15:16.139Z,96848.88
2022-12-24T00:17:42.838Z,96852.38
2022-12-24T00:20:10.184Z,96859.09
2022-12-24T00:22:36.930Z,96858.38
2022-12-24T00:25:03.952Z,96859.09
2022-12-24T00:27:30.614Z,96860.44
2022-12-24T00:29:57.400Z,96848.00
2022-12-24T00:32:24.142Z,96860.31
2022-12-24T00:34:51.656Z,96854.09
2022-12-24T00:37:18.362Z,96848.50
2022-12-24T00:39:45.157Z,96847.06
2022-12-24T00:42:12.056Z,96849.13
2022-12-24T00:44:38.901Z,96858.09
2022-12-24T00:47:11.781Z,96859.41
2022-12-24T00:49:38.978Z,96864.19
2022-12-24T00:52:05.812Z,96864.81
2022-12-24T00:54:32.521Z,96865.41
2022-12-24T00:56:59.221Z,96868.78
2022-12-24T00:59:26.173Z,96870.09
2022-12-24T01:01:52.884Z,96850.75
2022-12-24T01:04:38.778Z,96857.53
2022-12-24T01:07:05.618Z,96852.03
2022-12-24T01:09:32.298Z,96862.94
2022-12-24T01:11:59.086Z,96865.59
2022-12-24T01:14:25.755Z,96868.34
2022-12-24T01:16:52.568Z,96875.78
2022-12-24T01:19:19.307Z,96865.38
2022-12-24T01:21:46.098Z,96863.94
2022-12-24T01:24:16.608Z,96867.31
2022-12-24T01:26:43.528Z,96874.56
2022-12-24T01:29:10.222Z,96867.41
2022-12-24T01:31:37.181Z,96875.44
2022-12-24T01:34:03.949Z,96875.34
2022-12-24T01:36:30.960Z,96891.75
2022-12-24T01:38:57.694Z,96906.09
2022-12-24T01:41:43.637Z,96897.75
2022-12-24T01:44:36.674Z,96902.44
2022-12-24T01:47:03.894Z,96906.50
2022-12-24T01:49:30.937Z,96907.84
2022-12-24T01:52:06.337Z,96922.19
2022-12-24T01:54:36.780Z,96924.94
2022-12-24T01:57:14.013Z,96926.28
2022-12-24T01:59:43.959Z,96926.16
2022-12-24T02:02:11.083Z,96929.63
2022-12-24T02:04:42.865Z,96915.06
2022-12-24T02:07:09.611Z,96917.81
2022-12-24T02:09:36.727Z,96916.38
2022-12-24T02:12:05.323Z,96923.91
2022-12-24T02:14:32.430Z,96921.75
2022-12-24T02:16:59.163Z,96927.25
2022-12-24T02:19:35.120Z,96932.66
2022-12-24T02:22:17.682Z,96931.94
2022-12-24T02:25:05.237Z,96927.78
2022-12-24T02:27:32.009Z,96944.28
2022-12-24T02:30:09.195Z,96926.31
2022-12-24T02:33:03.907Z,96911.78
2022-12-24T02:35:36.515Z,96931.72
2022-12-24T02:38:06.250Z,96928.88
2022-12-24T02:40:45.587Z,96946.09
2022-12-24T02:43:16.001Z,96953.63
2022-12-24T02:45:46.227Z,96958.41
2022-12-24T02:48:15.720Z,96959.00
2022-12-24T02:50:57.763Z,96950.03
2022-12-24T02:53:24.632Z,96957.69
2022-12-24T02:56:31.100Z,96943.22
2022-12-24T02:59:08.665Z,96938.22
2022-12-24T03:02:19.615Z,96945.75
2022-12-24T03:04:56.413Z,96945.63
2022-12-24T03:07:30.209Z,96961.41
2022-12-24T03:10:18.205Z,96957.97
2022-12-24T03:12:49.170Z,96960.69
2022-12-24T03:15:17.837Z,96957.97
2022-12-24T03:17:46.865Z,96966.81
2022-12-24T03:20:16.578Z,96959.91
2022-12-24T03:22:43.279Z,96962.03
2022-12-24T03:25:10.116Z,96953.78
2022-12-24T03:27:37.860Z,96943.28
2022-12-24T03:30:09.351Z,96948.06
2022-12-24T03:32:36.172Z,96946.75
2022-12-24T03:35:03.189Z,96958.44
2022-12-24T03:37:29.961Z,96968.00
2022-12-24T03:39:56.733Z,96975.53
2022-12-24T03:42:23.512Z,96978.28
2022-12-24T03:44:50.253Z,96969.34
2022-12-24T03:47:17.218Z,96971.38
2022-12-24T03:49:43.864Z,96972.09
2022-12-24T03:52:10.674Z,96965.16
2022-12-24T03:54:37.337Z,96965.16
2022-12-24T03:57:04.152Z,96969.25
2022-12-24T03:59:30.820Z,96979.63
2022-12-24T04:01:57.769Z,96985.72
2022-12-24T04:04:24.616Z,96973.28
2022-12-24T04:06:51.320Z,96964.31
2022-12-24T04:09:18.076Z,96969.09
2022-12-24T04:11:44.832Z,96969.81
2022-12-24T04:14:11.509Z,96990.38
2022-12-24T04:16:38.287Z,96990.38
2022-12-24T04:19:04.984Z,96990.38
2022-12-24T04:21:31.749Z,96982.75
2022-12-24T04:23:58.469Z,96985.50
2022-12-24T04:26:25.304Z,96983.38
2022-12-24T04:28:51.995Z,96977.88
2022-12-24T04:31:18.963Z,96973.66
2022-12-24T04:33:46.079Z,96984.66
2022-12-24T04:36:15.059Z,97001.03
2022-12-24T04:38:41.881Z,96998.31
2022-12-24T04:41:23.328Z,97004.41
2022-12-24T04:43:52.817Z,97003.09
2022-12-24T04:46:21.628Z,97006.44
2022-12-24T04:48:50.560Z,97000.22
2022-12-24T04:51:17.580Z,96996.03
2022-12-24T04:53:44.876Z,97000.09
2022-12-24T04:56:18.937Z,97011.00
2022-12-24T04:58:45.808Z,97008.97
2022-12-24T05:01:14.744Z,97008.81
2022-12-24T05:03:41.643Z,97015.06
2022-12-24T05:06:10.975Z,97022.56
2022-12-24T05:08:38.546Z,97016.34
2022-12-24T05:11:06.123Z,97016.34
2022-12-24T05:13:40.777Z,97014.94
2022-12-24T05:16:11.893Z,97020.44
2022-12-24T05:18:38.657Z,97016.97
2022-12-24T05:21:14.024Z,97008.63
2022-12-24T05:23:59.457Z,97005.97
2022-12-24T05:26:34.385Z,97000.25
2022-12-24T05:29:02.215Z,96980.31
2022-12-24T05:31:30.485Z,97000.84
2022-12-24T05:33:57.377Z,96995.97
2022-12-24T05:36:24.262Z,96987.03
2022-12-24T05:38:51.545Z,96995.25
2022-12-24T05:41:18.602Z,97011.03
2022-12-24T05:43:45.501Z,97011.03
2022-12-24T05:46:14.390Z,97004.78
2022-12-24T05:48:47.466Z,97005.53
2022-12-24T05:51:18.796Z,97006.13
2022-12-24T05:53:46.352Z,96992.50
2022-12-24T05:56:15.259Z,96988.22
2022-12-24T05:58:42.904Z,96994.41
2022-12-24T06:01:10.714Z,96990.97
2022-12-24T06:03:37.964Z,96990.25
2022-12-24T06:06:04.961Z,97001.84
2022-12-24T06:08:32.029Z,96996.34
2022-12-24T06:11:00.232Z,96990.84
2022-12-24T06:13:27.520Z,97003.88
2022-12-24T06:15:58.747Z,97014.72
2022-12-24T06:18:25.846Z,97002.31
2022-12-24T06:20:56.648Z,97007.09
2022-12-24T06:23:24.138Z,97012.00
2022-12-24T06:25:51.338Z,97010.56
2022-12-24T06:28:18.815Z,97013.31
2022-12-24T06:30:50.267Z,97020.13
2022-12-24T06:33:17.740Z,97013.91
2022-12-24T06:35:45.903Z,97011.88
2022-12-24T06:38:13.419Z,97011.16
2022-12-24T06:40:41.347Z,97020.00
2022-12-24T06:43:08.353Z,97016.56
2022-12-24T06:45:35.211Z,97020.03
2022-12-24T06:48:02.093Z,97020.03
2022-12-24T06:50:28.912Z,97022.28
2022-12-24T06:52:55.696Z,97027.63
2022-12-24T06:55:22.371Z,97032.56
2022-12-24T06:57:49.143Z,97039.94
2022-12-24T07:00:16.185Z,97027.81
2022-12-24T07:02:44.413Z,97023.22
2022-12-24T07:05:12.720Z,97037.22
2022-12-24T07:07:42.539Z,97026.28
2022-12-24T07:10:12.576Z,97031.22
2022-12-24T07:12:39.333Z,97024.31
2022-12-24T07:15:06.920Z,97029.81
2022-12-24T07:17:34.060Z,97031.72
2022-12-24T07:20:00.840Z,97035.03
2022-12-24T07:22:27.589Z,97047.03
2022-12-24T07:24:54.409Z,97054.69
2022-12-24T07:27:21.846Z,97062.63
2022-12-24T07:29:48.551Z,97057.41
2022-12-24T07:32:15.490Z,97062.28
2022-12-24T07:34:42.539Z,97069.31
2022-12-24T07:37:09.279Z,97068.16
2022-12-24T07:39:35.946Z,97055.13
2022-12-24T07:42:02.741Z,97049.50
2022-12-24T07:44:29.493Z,97061.09
2022-12-24T07:46:56.334Z,97062.09
2022-12-24T07:49:23.037Z,97072.16
2022-12-24T07:51:49.795Z,97074.69
2022-12-24T07:54:16.586Z,97088.28
2022-12-24T07:56:43.490Z,97090.53
2022-12-24T07:59:13.052Z,97085.31
2022-12-24T08:01:40.142Z,97086.03
2022-12-24T08:04:07.531Z,97085.91
2022-12-24T08:06:34.853Z,97089.72
2022-12-24T08:09:01.702Z,97104.00
2022-12-24T08:11:28.588Z,97108.50
2022-12-24T08:13:55.331Z,97083.09
2022-12-24T08:16:22.318Z,97088.59
2022-12-24T08:18:49.114Z,97092.38
2022-12-24T08:21:16.020Z,97095.69
2022-12-24T08:23:42.715Z,97092.81
2022-12-24T08:26:15.370Z,97097.13
2022-12-24T08:28:48.900Z,97086.19
2022-12-24T08:31:17.034Z,97078.28
2022-12-24T08:33:48.494Z,97087.66
2022-12-24T08:36:20.609Z,97087.56
2022-12-24T08:38:48.178Z,97091.84
2022-12-24T08:41:14.914Z,97088.66
2022-12-24T08:43:42.566Z,97093.09
2022-12-24T08:46:09.900Z,97090.13
2022-12-24T08:48:37.026Z,97096.50
2022-12-24T08:51:10.859Z,97102.81
2022-12-24T08:53:38.109Z,97090.69
2022-12-24T08:56:06.977Z,97098.56
2022-12-24T08:58:34.207Z,97091.91
2022-12-24T09:01:01.587Z,97104.44
2022-12-24T09:03:28.709Z,97102.78
2022-12-24T09:05:55.642Z,97115.00
2022-12-24T09:08:22.457Z,97116.09
2022-12-24T09:10:49.132Z,97111.19
2022-12-24T09:13:18.076Z,97127.31
2022-12-24T09:15:53.663Z,97128.03
2022-12-24T09:18:20.571Z,97138.78
2022-12-24T09:20:50.188Z,97139.28
2022-12-24T09:23:19.152Z,97143.81
2022-12-24T09:25:46.770Z,97143.09
2022-12-24T09:28:13.860Z,97135.94
2022-12-24T09:30:41.008Z,97151.25
2022-12-24T09:33:12.249Z,97148.97
2022-12-24T09:35:48.165Z,97155.81
2022-12-24T09:38:15.897Z,97155.47
2022-12-24T09:40:42.651Z,97155.13
2022-12-24T09:43:17.783Z,97160.13
2022-12-24T09:45:56.809Z,97148.44
2022-12-24T09:48:29.373Z,97145.25
2022-12-24T09:51:08.971Z,97148.69
2022-12-24T09:53:45.142Z,97148.69
2022-12-24T09:56:16.614Z,97150.84
2022-12-24T09:58:49.175Z,97144.16
2022-12-24T10:01:17.315Z,97148.34
2022-12-24T10:03:44.226Z,97144.28
2022-12-24T10:06:15.887Z,97141.06
2022-12-24T10:09:04.504Z,97140.38
2022-12-24T10:11:47.864Z,97145.84
2022-12-24T10:14:29.818Z,97153.47
2022-12-24T10:17:35.278Z,97152.53
2022-12-24T10:20:35.382Z,97163.88
2022-12-24T10:23:20.808Z,97169.16
2022-12-24T10:26:11.544Z,97167.94
2022-12-24T10:28:43.897Z,97167.13
2022-12-24T10:31:10.910Z,97170.44
2022-12-24T10:33:42.143Z,97167.22
2022-12-24T10:36:18.474Z,97163.03
2022-12-24T10:38:46.186Z,97169.25
2022-12-24T10:41:13.634Z,97160.69
2022-12-24T10:43:42.416Z,97165.22
2022-12-24T10:46:15.169Z,97165.81
2022-12-24T10:48:50.594Z,97164.03
2022-12-24T10:51:29.990Z,97170.44
2022-12-24T10:54:02.089Z,97163.66
2022-12-24T10:56:29.021Z,97160.56
2022-12-24T10:58:55.753Z,97163.06
2022-12-24T11:01:43.709Z,97165.56
2022-12-24T11:04:19.284Z,97161.16
2022-12-24T11:06:53.432Z,97162.00
2022-12-24T11:09:35.351Z,97166.78
2022-12-24T11:12:08.934Z,97169.75
2022-12-24T11:14:38.081Z,97175.56
2022-12-24T11:17:04.968Z,97178.31
2022-12-24T11:19:33.926Z,97179.28
2022-12-24T11:22:07.468Z,97183.44
2022-12-24T11:24:37.486Z,97175.44
2022-12-24T11:27:54.729Z,97171.50
2022-12-24T11:30:23.119Z,97173.06
2022-12-24T11:32:52.257Z,97160.88
2022-12-24T11:35:21.919Z,97159.81
2022-12-24T11:38:12.325Z,97153.41
2022-12-24T11:40:42.052Z,97150.16
2022-12-24T11:43:22.019Z,97141.53
2022-12-24T11:45:56.683Z,97142.97
2022-12-24T11:48:28.296Z,97145.16
2022-12-24T11:51:03.641Z,97153.25
2022-12-24T11:53:47.036Z,97147.38
2022-12-24T11:56:31.341Z,97140.22
2022-12-24T11:59:03.758Z,97149.88
2022-12-24T12:01:32.268Z,97145.34
2022-12-24T12:04:04.796Z,97145.59
2022-12-24T12:06:33.517Z,97138.81
2022-12-24T12:09:03.783Z,97148.88
2022-12-24T12:11:31.063Z,97145.41
2022-12-24T12:13:59.784Z,97145.88
2022-12-24T12:16:55.673Z,97144.28
2022-12-24T12:19:23.875Z,97152.38
2022-12-24T12:21:51.622Z,97147.00
2022-12-24T12:24:42.826Z,97140.06
2022-12-24T12:27:21.009Z,97142.00
2022-12-24T12:29:54.465Z,97134.59
2022-12-24T12:32:42.794Z,97133.88
2022-12-24T12:35:24.409Z,97135.91
2022-12-24T12:38:02.484Z,97132.69
2022-12-24T12:40:55.576Z,97139.75
2022-12-24T12:43:32.562Z,97140.13
2022-12-24T12:46:04.242Z,97124.59
2022-12-24T12:49:09.949Z,97131.06
2022-12-24T12:51:39.656Z,97125.09
2022-12-24T12:54:25.140Z,97141.69
2022-12-24T12:56:55.185Z,97142.91
2022-12-24T12:59:46.436Z,97134.78
2022-12-24T13:02:19.308Z,97130.84
2022-12-24T13:05:00.277Z,97134.75
2022-12-24T13:07:48.923Z,97130.09
2022-12-24T13:10:43.316Z,97125.44
2022-12-24T13:13:34.217Z,97125.91
2022-12-24T13:16:21.351Z,97127.38
2022-12-24T13:18:54.196Z,97121.75
2022-12-24T13:21:24.089Z,97121.75
2022-12-24T13:23:51.221Z,97121.75
2022-12-24T13:26:18.700Z,97119.59
2022-12-24T13:28:45.480Z,97119.22
2022-12-24T13:31:12.194Z,97128.50
2022-12-24T13:33:39.041Z,97123.25
2022-12-24T13:36:19.257Z,97129.72
2022-12-24T13:38:54.929Z,97134.50
2022-12-24T13:41:39.560Z,97135.56
2022-12-24T13:44:07.735Z,97137.47
2022-12-24T13:46:59.743Z,97135.94
2022-12-24T13:49:36.713Z,97140.59
2022-12-24T13:52:11.457Z,97125.91
2022-12-24T13:54:41.984Z,97124.00
2022-12-24T13:57:29.971Z,97121.22
2022-12-24T14:00:04.898Z,97128.41
2022-12-24T14:02:59.601Z,97125.91
2022-12-24T14:05:50.816Z,97122.69
2022-12-24T14:08:39.571Z,97117.69
2022-12-24T14:11:13.812Z,97112.78
2022-12-24T14:13:40.606Z,97111.13
2022-12-24T14:16:29.008Z,97120.44
2022-12-24T14:19:33.688Z,97112.69
2022-12-24T14:22:22.179Z,97110.72
2022-12-24T14:24:57.204Z,97110.88
2022-12-24T14:27:42.496Z,97110.63
2022-12-24T14:30:09.520Z,97119.56
2022-12-24T14:32:40.366Z,97112.38
2022-12-24T14:35:18.680Z,97114.53
2022-12-24T14:38:06.027Z,97116.22
2022-12-24T14:40:37.626Z,97123.72
2022-12-24T14:43:29.216Z,97126.47
2022-12-24T14:46:37.782Z,97137.31
2022-12-24T14:49:06.334Z,97136.59
2022-12-24T14:52:00.713Z,97148.78
2022-12-24T14:54:35.511Z,97146.75
2022-12-24T14:57:11.096Z,97150.81
2022-12-24T14:59:46.359Z,97148.78
2022-12-24T15:02:31.775Z,97149.16
2022-12-24T15:05:04.745Z,97145.09
2022-12-24T15:07:32.969Z,97155.34
2022-12-24T15:10:00.071Z,97157.59
2022-12-24T15:12:26.966Z,97160.44
2022-12-24T15:14:53.771Z,97159.59
2022-12-24T15:17:20.672Z,97159.31
2022-12-24T15:19:50.405Z,97155.50
2022-12-24T15:22:27.937Z,97156.22
2022-12-24T15:24:54.919Z,97154.44
2022-12-24T15:27:24.433Z,97152.03
2022-12-24T15:29:57.089Z,97142.97
2022-12-24T15:32:24.476Z,97129.25
2022-12-24T15:34:55.089Z,97139.97
2022-12-24T15:37:48.284Z,97148.53
2022-12-24T15:40:21.245Z,97154.81
2022-12-24T15:42:48.123Z,97162.31
2022-12-24T15:45:27.805Z,97151.22
2022-12-24T15:47:59.345Z,97157.56
2022-12-24T15:50:29.731Z,97154.69
2022-12-24T15:53:21.140Z,97147.25
2022-12-24T15:56:19.492Z,97146.16
2022-12-24T15:58:46.372Z,97151.03
2022-12-24T16:01:13.503Z,97141.97
2022-12-24T16:03:41.999Z,97150.66
2022-12-24T16:06:11.905Z,97153.03
2022-12-24T16:08:40.118Z,97153.34
2022-12-24T16:11:06.859Z,97150.31
2022-12-24T16:13:36.283Z,97161.38
2022-12-24T16:16:14.647Z,97161.88
2022-12-24T16:18:56.728Z,97173.28
2022-12-24T16:21:32.683Z,97174.91
2022-12-24T16:24:06.393Z,97185.41
2022-12-24T16:26:34.839Z,97188.13
2022-12-24T16:29:01.878Z,97190.88
2022-12-24T16:31:32.394Z,97195.38
2022-12-24T16:33:59.489Z,97202.22
2022-12-24T16:36:26.800Z,97199.63
2022-12-24T16:39:12.416Z,97196.63
2022-12-24T16:41:57.623Z,97198.25
2022-12-24T16:44:24.392Z,97190.03
2022-12-24T16:46:53.261Z,97190.03
2022-12-24T16:49:21.611Z,97198.25
2022-12-24T16:51:48.506Z,97201.59
2022-12-24T16:54:15.512Z,97205.94
2022-12-24T16:56:43.076Z,97204.78
2022-12-24T16:59:21.439Z,97201.59
2022-12-24T17:01:48.828Z,97196.94
2022-12-24T17:04:16.499Z,97200.84
2022-12-24T17:06:43.607Z,97189.63
2022-12-24T17:09:11.434Z,97196.56
2022-12-24T17:11:38.326Z,97193.66
2022-12-24T17:14:08.436Z,97197.19
2022-12-24T17:16:44.792Z,97188.25
2022-12-24T17:19:11.607Z,97186.22
2022-12-24T17:21:38.359Z,97178.72
2022-12-24T17:24:05.456Z,97176.81
2022-12-24T17:26:33.240Z,97180.44
2022-12-24T17:29:03.574Z,97178.25
2022-12-24T17:31:30.614Z,97180.66
2022-12-24T17:33:57.598Z,97171.16
2022-12-24T17:36:24.918Z,97186.47
2022-12-24T17:38:51.896Z,97185.28
2022-12-24T17:41:20.348Z,97179.88
2022-12-24T17:43:47.640Z,97190.09
2022-12-24T17:46:17.017Z,97180.34
2022-12-24T17:48:44.125Z,97187.66
2022-12-24T17:51:13.919Z,97182.56
2022-12-24T17:53:42.088Z,97187.13
2022-12-24T17:56:12.343Z,97184.75
2022-12-24T17:58:40.520Z,97193.97
2022-12-24T18:01:10.993Z,97195.53
2022-12-24T18:03:37.775Z,97190.22
2022-12-24T18:06:05.947Z,97190.81
2022-12-24T18:08:32.721Z,97181.28
2022-12-24T18:10:59.418Z,97191.78
2022-12-24T18:13:26.804Z,97196.81
2022-12-24T18:15:53.515Z,97201.81
2022-12-24T18:18:20.538Z,97199.94
2022-12-24T18:20:47.643Z,97201.50
2022-12-24T18:23:14.503Z,97199.59
2022-12-24T18:25:41.152Z,97205.22
2022-12-24T18:28:07.920Z,97209.53
2022-12-24T18:30:34.677Z,97202.72
2022-12-24T18:33:01.556Z,97207.75
2022-12-24T18:35:28.320Z,97208.59
2022-12-24T18:37:55.198Z,97205.84
2022-12-24T18:40:21.919Z,97208.13
2022-12-24T18:42:48.681Z,97206.81
2022-12-24T18:45:15.482Z,97206.91
2022-12-24T18:47:42.261Z,97211.84
2022-12-24T18:50:09.278Z,97198.81
2022-12-24T18:52:36.231Z,97200.25
2022-12-24T18:55:03.308Z,97200.97
2022-12-24T18:57:30.791Z,97196.91
2022-12-24T18:59:57.489Z,97194.16
2022-12-24T19:02:24.416Z,97197.06
2022-12-24T19:04:51.459Z,97200.50
2022-12-24T19:07:18.331Z,97191.66
2022-12-24T19:09:48.246Z,97195.13
2022-12-24T19:12:15.813Z,97194.53
2022-12-24T19:14:42.715Z,97200.03
2022-12-24T19:17:09.558Z,97201.47
2022-12-24T19:19:36.256Z,97202.91
2022-12-24T19:22:03.831Z,97202.19
2022-12-24T19:24:30.718Z,97203.63
2022-12-24T19:26:57.572Z,97203.63
2022-12-24T19:29:24.295Z,97201.59
2022-12-24T19:31:51.197Z,97205.06
2022-12-24T19:34:17.936Z,97207.78
2022-12-24T19:36:44.999Z,97198.25
2022-12-24T19:39:11.687Z,97201.00
2022-12-24T19:41:38.692Z,97205.06
2022-12-24T19:44:05.614Z,97196.81
2022-12-24T19:46:34.450Z,97198.84
2022-12-24T19:49:05.121Z,97207.78
2022-12-24T19:51:32.377Z,97202.31
2022-12-24T19:54:00.295Z,97204.34
2022-12-24T19:56:29.617Z,97209.81
2022-12-24T19:58:59.923Z,97208.50
2022-12-24T20:01:29.194Z,97221.53
2022-12-24T20:03:56.627Z,97219.50
2022-12-24T20:06:26.545Z,97220.09
2022-12-24T20:08:58.327Z,97218.91
2022-12-24T20:11:25.229Z,97220.22
2022-12-24T20:13:52.663Z,97221.53
2022-12-24T20:16:21.245Z,97222.13
2022-12-24T20:18:56.392Z,97213.19
2022-12-24T20:21:23.508Z,97223.56
2022-12-24T20:23:50.329Z,97224.88
2022-12-24T20:26:19.013Z,97224.16
2022-12-24T20:28:46.167Z,97227.63
2022-12-24T20:31:15.623Z,97222.13
2022-12-24T20:33:43.677Z,97218.06
2022-12-24T20:36:10.940Z,97217.34
2022-12-24T20:38:38.580Z,97219.38
2022-12-24T20:41:05.784Z,97218.06
2022-12-24T20:43:37.334Z,97219.38
2022-12-24T20:46:06.054Z,97220.81
2022-12-24T20:48:32.989Z,97225.59
2022-12-24T20:50:59.931Z,97223.56
2022-12-24T20:53:26.895Z,97218.78
2022-12-24T20:55:54.005Z,97220.81
2022-12-24T20:58:21.146Z,97209.13
2022-12-24T21:00:49.449Z,97206.38
2022-12-24T21:03:17.527Z,97194.66
2022-12-24T21:05:45.088Z,97200.88
2022-12-24T21:08:12.963Z,97195.38
2022-12-24T21:10:40.475Z,97195.38
2022-12-24T21:13:07.444Z,97196.69
2022-12-24T21:15:37.151Z,97198.72
2022-12-24T21:18:12.015Z,97200.88
2022-12-24T21:20:40.422Z,97202.19
2022-12-24T21:23:07.401Z,97195.28
2022-12-24T21:25:34.369Z,97201.47
2022-12-24T21:28:01.386Z,97202.78
2022-12-24T21:30:28.384Z,97204.09
2022-12-24T21:32:55.164Z,97211.59
2022-12-24T21:35:21.922Z,97208.84
2022-12-24T21:37:48.624Z,97208.16
2022-12-24T21:40:15.369Z,97199.19
2022-12-24T21:42:42.120Z,97201.94
2022-12-24T21:45:09.666Z,97196.44
2022-12-24T21:47:38.137Z,97190.97
2022-12-24T21:50:29.988Z,97195.72
2022-12-24T21:53:18.794Z,97188.09
2022-12-24T21:55:45.698Z,97195.72
2022-12-24T21:58:12.416Z,97188.81
2022-12-24T22:00:39.179Z,97197.06
2022-12-24T22:03:06.181Z,97181.16
2022-12-24T22:05:34.248Z,97183.91
2022-12-24T22:08:19.525Z,97187.34
2022-12-24T22:11:05.218Z,97182.59
2022-12-24T22:13:32.346Z,97177.69
2022-12-24T22:15:59.112Z,97181.16
2022-12-24T22:18:26.092Z,97168.75
2022-12-24T22:20:52.854Z,97178.41
2022-12-24T22:23:19.947Z,97174.22
2022-12-24T22:25:47.348Z,97172.91
2022-12-24T22:28:14.327Z,97179.13
2022-12-24T22:30:42.472Z,97179.72
2022-12-24T22:33:10.496Z,97174.22
2022-12-24T22:35:39.080Z,97164.56
2022-12-24T22:38:08.992Z,97168.75
2022-12-24T22:40:36.165Z,97169.59
2022-12-24T22:43:02.905Z,97160.50
2022-12-24T22:45:29.640Z,97163.97
2022-12-24T22:47:56.364Z,97168.03
2022-12-24T22:50:23.218Z,97173.53
2022-12-24T22:52:49.959Z,97178.28
2022-12-24T22:55:16.882Z,97174.22
2022-12-24T22:57:43.588Z,97178.28
2022-12-24T23:00:15.644Z,97167.91
2022-12-24T23:02:42.644Z,97171.38
2022-12-24T23:05:14.322Z,97171.38
2022-12-24T23:07:41.155Z,97170.66
2022-12-24T23:10:08.354Z,97171.38
2022-12-24T23:12:53.736Z,97165.88
2022-12-24T23:15:20.608Z,97162.41
2022-12-24T23:17:49.844Z,97164.47
2022-12-24T23:20:16.712Z,97161.00
2022-12-24T23:22:43.356Z,97150.72
2022-12-24T23:25:10.591Z,97164.47
2022-12-24T23:27:37.331Z,97161.00
2022-12-24T23:30:04.534Z,97155.50
2022-12-24T23:32:31.210Z,97153.47
2022-12-24T23:34:57.982Z,97147.97
2022-12-24T23:37:28.250Z,97146.53
2022-12-24T23:39:59.858Z,97147.97
2022-12-24T23:42:26.536Z,97148.56
2022-12-24T23:44:53.291Z,97152.75
2022-12-24T23:47:20.719Z,97148.56
2022-12-24T23:49:47.492Z,97148.56
2022-12-24T23:52:14.200Z,97147.84
2022-12-24T23:54:40.985Z,97144.38
2022-12-24T23:57:07.683Z,97147.13
2022-12-24T23:59:34.915Z,97153.34
